Lincoln, WA

6:41 PM PDT on July 30, 2014 (GMT -0700)
Davenport, WA (KWADAVEN3) Elev 2375 ft | 47.65 °N, 118.15 °W | Change Station
Active Advisory: Heat Advisory Active Notice: Record Report

Current weather conditions updated 14 minutes ago

Partly Cloudy
Partly Cloudy
101.8 °F
Feels Like 97 °F
N
2.7
Wind Variable Wind from West

Tomorrow is forecast to be Cooler than today.

Today
High -- | Low -- °F
--% Chance of Precip.
Yesterday
High -- | Low -- °F
Precip. -- in
5:28 AM 8:31 PM
Waxing Crescent, 15% visible
Pressure 29.96 in
Visibility 10.0 miles
Clouds Few 13000 ft
Heat Index 97 °F
Dew Point 42 °F
Humidity 13%
Rainfall 0.00 in
Snow Depth Not available.
UV 2 out of 12
Pollen 6.50 out of 12
Air Quality Not available.
Flu Activity Not available.
METAR KSKA 310058Z AUTO 22007KT 10SM FEW130 36/03 A3001 RMK AO2 SLP143 T03590027

More Conditions Fewer Conditions

Pressure 29.96 in
Visibility 10.0 miles
Clouds Few 13000 ft
Heat Index 97 °F
Dew Point 42 °F
Humidity 13%
Rainfall 0.00 in
Snow Depth Not available.
UV 2 out of 12
Pollen 6.50 out of 12
Air Quality Not available.
Flu Activity Not available.
METAR KSKA 310058Z AUTO 22007KT 10SM FEW130 36/03 A3001 RMK AO2 SLP143 T03590027

More Conditions Fewer Conditions

10-Day Weather Forecast

Almanac

Astronomy

Jul. 30, 2014 Rise Set
Actual Time 5:28 AM PDT 8:31 PM PDT
Civil Twilight 4:51 AM PDT 9:07 PM PDT
Nautical Twilight 4:04 AM PDT 9:55 PM PDT
Astronomical Twilight 3:05 AM PDT 10:52 PM PDT
Moon 9:24 AM PDT (7/30) 9:54 PM PDT (7/30)
Length of Visible Light 16h 16m
Length of Day
15h 03m
Tomorrow will be 2m 38s shorter.
Waxing Crescent, 15% of the Moon is Illuminated
Today
Waxing Crescent
Aug 3
First Quarter
Aug 10
Full
Aug 17
Last Quarter
Aug 25
New

Today's Extremes

State Highs State Lows

Community

WunderPhotos

Upload Photos

1,739,264 photos uploaded!

Nearby

Snow Depth

Station Depth Elevation
Moses Mountain 0 in 5300 ft
Quartz Peak 0 in 4700 ft
Sentinel Butte 0 in 4920 ft
Trough 0 in 5300 ft
Grouse Camp 0 in 5380 ft

Earthquake Activity

City Distance Mag. Time & Date
No recent earthquake activity has been reported nearby.
Minimum magnitude displayed is 2.5.

Coastal Water Temperatures

Place Temperature
No Stations Reporting

Nearby Weather Stations

Station Location Temp. Heat Index Dew Point Humidity Wind Precip. Elev Updated Type
Davenport, WA, Davenport, WA 101.8 °F 97 °F 42 °F 13% West  at  2.7 mph - / hr 2375 ft 6:27 PM PDT Normal
RAWS MIDNITE MINE WA, Wellpinit, WA 95 °F 90 °F 32 °F 11% WSW  at  6 mph 0.00 in / hr 2884 ft 5:39 PM PDT MADIS
Seven Bays, Seven Bays, WA 99.0 °F 97 °F 55 °F 23% SW  at  4.0 mph 0.00 in / hr 1332 ft 6:40 PM PDT Rapid Fire
3 miles ESE of Grand Coulee Dam, in Linc, Grand Coulee, WA 98.5 °F 93 °F 30 °F 9% South  at  4.0 mph 0.00 in / hr 1575 ft 6:31 PM PDT Normal
RAWS SPRING CANYON WA, Coulee Dam, WA 105 °F 99 °F 32 °F 8% South  at  8 mph 0.00 in / hr 1339 ft 5:37 PM PDT MADIS

Show More Stations Show Fewer Stations